Time;durP1;ratioP1;P1;durP2;ratioP2;P2;SDS_P1;SDS_P2;PMS_P1;PMS_P2;Temp;Humidity;BMP_temperature;BMP_pressure;BME280_temperature;BME280_humidity;BME280_pressure;Samples;Min_cycle;Max_cycle;Signal;HPM_P1;HPM_P2
2021/09/09 00:01:43;;;;;;;18.50;11.60;;;16.80;94.70;;;16.98;83.09;100158.72;5015479;28;20528;-68
2021/09/09 00:04:11;;;;;;;16.75;12.23;;;16.70;94.60;;;16.98;82.99;100163.34;5010399;28;20050;-69
2021/09/09 00:06:39;;;;;;;17.67;11.88;;;16.70;94.80;;;16.96;83.12;100160.88;5007303;28;20127;-69
2021/09/09 00:09:06;;;;;;;16.90;12.45;;;16.70;94.90;;;16.92;83.15;100158.81;5022885;28;20049;-69
2021/09/09 00:11:33;;;;;;;19.15;12.02;;;16.70;94.80;;;16.90;83.18;100148.03;5027000;28;20037;-69
2021/09/09 00:14:02;;;;;;;18.13;12.80;;;16.70;94.70;;;16.91;83.21;100146.16;5024269;28;20064;-68
2021/09/09 00:16:31;;;;;;;18.23;11.93;;;16.70;95.00;;;16.89;83.21;100143.63;5042452;28;20842;-69
2021/09/09 00:19:00;;;;;;;18.02;12.95;;;16.70;94.90;;;16.89;83.11;100146.38;5027339;28;20069;-69
2021/09/09 00:21:29;;;;;;;16.15;12.20;;;16.70;95.00;;;16.84;83.64;100142.66;5010057;28;20045;-68
2021/09/09 00:23:58;;;;;;;18.20;13.38;;;16.70;95.00;;;16.84;83.41;100131.66;5008622;28;20057;-69
2021/09/09 00:26:26;;;;;;;18.17;12.35;;;16.60;94.90;;;16.81;83.54;100131.03;5007078;28;20820;-68
2021/09/09 00:28:53;;;;;;;19.92;12.93;;;16.60;94.90;;;16.80;83.48;100131.25;5007401;28;20096;-69
2021/09/09 00:31:20;;;;;;;18.10;12.50;;;16.60;95.00;;;16.79;83.49;100122.19;5007202;28;20826;-68
2021/09/09 00:33:50;;;;;;;21.23;13.07;;;16.60;95.00;;;16.81;83.48;100128.28;5019840;28;20065;-68
2021/09/09 00:36:19;;;;;;;19.50;13.15;;;16.60;95.10;;;16.79;83.49;100124.94;5027317;28;20062;-69
2021/09/09 00:38:48;;;;;;;16.88;12.38;;;16.60;95.20;;;16.77;83.40;100124.34;5027113;28;20045;-68
2021/09/09 00:41:15;;;;;;;18.50;12.38;;;16.60;94.90;;;16.74;83.20;100119.28;5026845;28;20037;-68
2021/09/09 00:43:43;;;;;;;17.20;12.10;;;16.50;95.00;;;16.72;83.23;100118.69;5015021;28;20046;-69
2021/09/09 00:46:10;;;;;;;19.40;12.43;;;16.50;95.10;;;16.62;83.70;100118.44;5010787;28;20084;-69
2021/09/09 00:48:38;;;;;;;18.20;11.65;;;16.50;95.20;;;16.62;83.66;100115.69;5010856;28;20108;-69
2021/09/09 00:51:05;;;;;;;16.70;11.38;;;16.50;95.20;;;16.66;83.53;100113.28;5010555;28;20063;-68
2021/09/09 00:53:34;;;;;;;18.77;13.15;;;16.40;95.10;;;16.65;83.42;100104.22;5013969;28;20073;-68
2021/09/09 00:56:02;;;;;;;19.65;12.93;;;16.40;95.20;;;16.64;83.15;100091.56;5010734;28;20184;-69
2021/09/09 00:58:30;;;;;;;16.23;12.15;;;16.40;95.20;;;16.63;83.19;100092.63;5008920;28;20046;-68
2021/09/09 01:00:58;;;;;;;16.23;11.70;;;16.40;95.20;;;16.61;83.04;100103.84;5010273;28;20096;-69
2021/09/09 01:03:25;;;;;;;19.40;12.23;;;16.30;95.40;;;16.58;83.12;100095.22;5013671;28;20050;-69
2021/09/09 01:05:52;;;;;;;17.42;11.88;;;16.30;95.40;;;16.58;83.06;100092.47;5010348;28;20046;-69
2021/09/09 01:08:20;;;;;;;17.60;12.00;;;16.20;95.30;;;16.55;83.08;100087.47;5019197;28;20457;-69
2021/09/09 01:10:47;;;;;;;16.80;12.20;;;16.20;95.40;;;16.54;83.20;100089.38;5024164;28;20073;-69
2021/09/09 01:13:15;;;;;;;18.02;12.57;;;16.20;95.50;;;16.54;83.14;100088.53;5014147;28;20253;-69
2021/09/09 01:15:45;;;;;;;18.05;12.93;;;16.20;95.60;;;16.52;83.27;100079.69;5029966;28;20706;-69
2021/09/09 01:18:15;;;;;;;18.73;12.68;;;16.20;95.70;;;16.48;83.40;100082.06;5029737;28;20132;-69
2021/09/09 01:20:44;;;;;;;19.38;13.15;;;16.20;95.60;;;16.49;83.31;100078.25;5029737;28;20041;-69
2021/09/09 01:23:11;;;;;;;17.58;12.13;;;16.20;95.80;;;16.46;83.35;100080.63;5022645;28;20042;-69
2021/09/09 01:25:40;;;;;;;18.92;12.73;;;16.10;95.60;;;16.45;83.43;100074.31;5009924;28;20089;-69
2021/09/09 01:28:07;;;;;;;18.25;13.15;;;16.10;95.80;;;16.41;83.52;100064.84;5010198;28;20214;-69
2021/09/09 01:30:37;;;;;;;18.55;12.43;;;16.10;95.90;;;16.41;83.48;100071.19;5020721;28;20393;-69
2021/09/09 01:33:04;;;;;;;19.27;12.73;;;16.10;95.90;;;16.39;83.35;100076.09;5027031;28;20033;-69
2021/09/09 01:35:32;;;;;;;19.73;13.35;;;16.10;95.90;;;16.36;83.32;100068.31;5029853;28;20135;-68
2021/09/09 01:37:59;;;;;;;18.73;12.52;;;16.00;95.80;;;16.36;83.40;100065.56;5029600;28;20149;-69
2021/09/09 01:40:31;;;;;;;18.45;12.27;;;16.00;95.90;;;16.34;83.25;100059.47;5029688;28;20100;-69
2021/09/09 01:43:00;;;;;;;19.48;12.55;;;16.00;95.80;;;16.34;83.19;100059.47;5026472;28;20100;-69
2021/09/09 01:45:28;;;;;;;19.63;13.60;;;16.00;96.00;;;16.33;83.16;100057.78;5029605;28;20786;-68
2021/09/09 01:47:56;;;;;;;17.45;11.88;;;16.00;96.10;;;16.33;83.14;100051.44;5029578;28;20111;-69
2021/09/09 01:50:24;;;;;;;20.60;12.88;;;15.90;96.00;;;16.30;83.19;100052.78;5029527;28;20041;-69
2021/09/09 01:52:51;;;;;;;18.73;13.20;;;15.90;96.10;;;16.28;83.33;100054.91;5024661;28;20042;-69
2021/09/09 01:55:19;;;;;;;18.17;11.85;;;15.90;96.30;;;16.28;83.02;100057.66;5029367;28;20514;-69
2021/09/09 01:57:46;;;;;;;19.75;12.43;;;15.90;96.10;;;16.26;83.26;100054.31;5029399;28;20119;-68
2021/09/09 02:00:16;;;;;;;18.77;12.68;;;15.90;96.20;;;16.21;83.35;100049.50;5029508;28;20096;-68
2021/09/09 02:02:43;;;;;;;21.00;12.32;;;15.90;96.20;;;16.21;83.48;100043.19;5034463;28;20430;-69
2021/09/09 02:05:13;;;;;;;19.33;12.93;;;15.90;96.30;;;16.22;83.55;100036.59;5009713;28;20115;-69
2021/09/09 02:07:40;;;;;;;17.92;12.30;;;15.90;96.30;;;16.19;83.41;100037.09;5013130;28;20069;-69
2021/09/09 02:10:10;;;;;;;18.90;13.50;;;15.90;96.30;;;16.20;83.44;100036.00;5029348;28;20061;-68
2021/09/09 02:12:37;;;;;;;19.02;12.85;;;15.80;96.20;;;16.19;83.48;100034.34;5043429;28;20043;-68
2021/09/09 02:15:06;;;;;;;20.40;12.70;;;15.80;96.30;;;16.17;83.53;100036.50;5028904;28;20076;-69
2021/09/09 02:17:34;;;;;;;18.33;12.60;;;15.80;96.40;;;16.17;83.57;100033.75;5029082;28;20045;-68
2021/09/09 02:20:02;;;;;;;19.50;12.55;;;15.80;96.50;;;16.11;83.85;100040.19;5023859;28;20128;-68
2021/09/09 02:22:29;;;;;;;19.92;12.93;;;15.80;96.40;;;16.09;83.96;100034.91;5007836;28;20066;-68
2021/09/09 02:24:56;;;;;;;17.00;12.82;;;15.80;96.50;;;16.08;84.12;100032.41;5007904;28;20046;-68
2021/09/09 02:27:23;;;;;;;20.33;12.55;;;15.80;96.60;;;16.05;84.40;100030.97;5008476;28;20137;-68
2021/09/09 02:29:51;;;;;;;18.83;12.95;;;15.80;96.60;;;16.08;84.13;100032.41;5013805;28;20069;-69
2021/09/09 02:32:18;;;;;;;17.90;12.40;;;15.80;96.60;;;16.08;84.24;100029.66;5027155;28;20049;-69
2021/09/09 02:34:47;;;;;;;17.90;12.07;;;15.80;96.80;;;16.08;84.22;100029.66;5027357;28;20075;-69
2021/09/09 02:37:14;;;;;;;18.27;12.85;;;15.80;96.60;;;16.08;84.21;100021.41;5027919;28;20103;-69
2021/09/09 02:39:46;;;;;;;21.10;13.32;;;15.80;96.80;;;16.07;84.20;100027.97;5027852;28;20104;-68
2021/09/09 02:42:14;;;;;;;19.25;12.57;;;15.80;96.50;;;16.02;84.27;100015.78;5027170;28;20057;-69
2021/09/09 02:44:41;;;;;;;19.95;13.20;;;15.70;96.60;;;16.00;84.42;100017.09;5009283;28;20105;-69
2021/09/09 02:47:09;;;;;;;20.85;13.48;;;15.70;96.70;;;15.95;84.63;100020.50;5008074;28;20493;-69
2021/09/09 02:49:36;;;;;;;19.30;12.85;;;15.70;96.90;;;15.97;84.42;100023.88;5008023;28;20050;-69
2021/09/09 02:52:06;;;;;;;22.80;13.27;;;15.70;96.60;;;15.97;84.55;100023.03;5007692;28;20045;-69
2021/09/09 02:54:33;;;;;;;19.48;12.40;;;15.70;96.80;;;15.96;84.50;100019.47;5008724;28;20049;-68
2021/09/09 02:57:01;;;;;;;18.60;13.73;;;15.70;96.80;;;15.93;84.49;100019.91;5006489;28;20525;-69
2021/09/09 02:59:28;;;;;;;19.25;12.73;;;15.70;96.90;;;15.95;84.57;100019.69;5007745;28;20517;-68
2021/09/09 03:01:55;;;;;;;18.75;12.25;;;15.70;96.90;;;15.95;84.49;100019.69;5007598;28;20042;-69
2021/09/09 03:04:22;;;;;;;17.77;13.10;;;15.70;96.80;;;15.91;84.67;100013.81;5006584;28;20128;-69
2021/09/09 03:06:50;;;;;;;18.95;12.82;;;15.70;96.90;;;15.91;84.46;100005.59;5007352;28;20069;-69
2021/09/09 03:09:18;;;;;;;18.33;12.35;;;15.70;96.70;;;15.88;84.53;100011.56;5007481;28;20068;-69
2021/09/09 03:11:46;;;;;;;18.48;12.90;;;15.70;96.70;;;15.92;84.50;100007.28;5007239;28;20034;-68
2021/09/09 03:14:14;;;;;;;22.58;13.77;;;15.70;96.80;;;15.92;84.40;100004.53;5005798;28;20050;-69
2021/09/09 03:16:41;;;;;;;20.73;13.40;;;15.70;97.00;;;15.93;84.47;100003.44;5007553;28;20038;-69
2021/09/09 03:19:09;;;;;;;20.15;12.25;;;15.60;96.90;;;15.85;84.83;99995.53;5007782;28;20092;-69
2021/09/09 03:21:36;;;;;;;18.08;13.07;;;15.60;97.00;;;15.86;84.76;99991.75;5007268;28;20580;-69
2021/09/09 03:24:04;;;;;;;20.83;12.90;;;15.60;96.90;;;15.83;84.69;100004.00;5008665;28;20513;-68
2021/09/09 03:26:33;;;;;;;19.05;12.75;;;15.60;96.90;;;15.80;84.88;99996.25;5007428;28;20103;-69
2021/09/09 03:29:00;;;;;;;17.92;12.82;;;15.60;96.90;;;15.84;84.59;99999.38;5007695;28;20108;-69
2021/09/09 03:31:27;;;;;;;16.42;12.55;;;15.60;96.80;;;15.81;84.80;99995.16;5006896;28;20050;-69
2021/09/09 03:33:55;;;;;;;19.30;12.82;;;15.60;97.10;;;15.84;84.65;99993.88;5010353;28;20510;-69
2021/09/09 03:36:23;;;;;;;18.77;12.90;;;15.60;97.00;;;15.83;84.64;99993.03;5007402;28;20157;-69
2021/09/09 03:38:50;;;;;;;18.92;13.32;;;15.60;97.00;;;15.84;84.70;99988.41;5007377;28;20053;-69
2021/09/09 03:41:18;;;;;;;20.13;12.02;;;15.60;97.10;;;15.86;84.56;99986.25;5006859;28;20081;-69
2021/09/09 03:43:46;;;;;;;17.50;12.20;;;15.50;97.10;;;15.86;84.63;99999.13;5008469;28;20042;-70
2021/09/09 03:46:14;;;;;;;17.73;12.05;;;15.50;97.30;;;15.83;84.49;99982.06;5007106;28;20050;-70
2021/09/09 03:48:41;;;;;;;20.67;13.07;;;15.50;97.40;;;15.84;84.42;99993.88;5007406;28;20045;-70
2021/09/09 03:51:09;;;;;;;19.85;13.25;;;15.50;97.20;;;15.83;84.53;99998.50;5006703;28;20054;-70
2021/09/09 03:53:36;;;;;;;21.27;13.05;;;15.50;97.50;;;15.82;84.55;99996.00;5008227;28;20038;-71
2021/09/09 03:56:04;;;;;;;19.27;12.70;;;15.50;97.20;;;15.80;84.62;99998.13;5007086;28;20052;-71
2021/09/09 03:58:33;;;;;;;20.33;12.98;;;15.50;97.30;;;15.79;84.72;100001.97;5007060;28;20045;-71
2021/09/09 04:01:01;;;;;;;20.83;13.65;;;15.50;97.30;;;15.80;84.67;100003.63;5006960;28;20100;-71
2021/09/09 04:03:29;;;;;;;18.00;12.63;;;15.50;97.50;;;15.79;84.57;99996.47;5006806;28;20046;-71
2021/09/09 04:05:56;;;;;;;19.15;13.05;;;15.50;97.50;;;15.78;84.66;100000.28;5006936;28;20044;-71
2021/09/09 04:08:24;;;;;;;16.65;12.57;;;15.50;97.50;;;15.79;84.82;100004.72;5016195;28;20045;-71
2021/09/09 04:10:51;;;;;;;17.90;13.20;;;15.50;97.60;;;15.77;84.93;99996.72;5026201;28;20128;-71
2021/09/09 04:13:19;;;;;;;18.80;13.65;;;15.50;97.60;;;15.76;84.85;100003.28;5017563;28;20095;-70
2021/09/09 04:15:46;;;;;;;18.75;12.88;;;15.50;97.70;;;15.75;84.70;99996.09;5007000;28;20050;-71
2021/09/09 04:18:15;;;;;;;15.93;12.40;;;15.40;97.40;;;15.72;84.99;100001.19;5007133;28;20558;-71
2021/09/09 04:20:42;;;;;;;19.23;12.98;;;15.40;97.50;;;15.73;84.92;100000.13;5009153;28;20046;-69
2021/09/09 04:23:09;;;;;;;18.80;13.35;;;15.40;97.60;;;15.72;85.13;99996.53;5010681;28;20041;-70
2021/09/09 04:25:37;;;;;;;18.10;12.75;;;15.40;97.50;;;15.74;84.89;100001.81;5010407;28;20152;-71
2021/09/09 04:28:05;;;;;;;18.77;13.68;;;15.40;97.50;;;15.73;84.90;100002.88;5010660;28;20053;-71
2021/09/09 04:30:32;;;;;;;17.88;12.82;;;15.40;97.50;;;15.71;84.73;99994.03;5010415;28;20129;-70
2021/09/09 04:32:59;;;;;;;16.73;12.88;;;15.40;97.50;;;15.70;84.76;99995.09;5013450;28;20098;-70
2021/09/09 04:35:28;;;;;;;22.55;13.63;;;15.40;97.50;;;15.61;85.32;99987.19;5029971;28;20095;-71
2021/09/09 04:37:55;;;;;;;17.90;13.07;;;15.40;97.80;;;15.64;85.18;99978.47;5030215;28;20505;-70
2021/09/09 04:40:23;;;;;;;21.45;13.30;;;15.40;97.60;;;15.67;84.93;99976.34;5029687;28;20159;-71
2021/09/09 04:42:50;;;;;;;20.58;13.05;;;15.40;97.50;;;15.66;84.89;99974.69;5027101;28;20040;-71
2021/09/09 04:45:17;;;;;;;19.00;13.40;;;15.40;97.50;;;15.64;84.87;99977.66;5030125;28;20099;-72
2021/09/09 04:47:45;;;;;;;19.95;13.45;;;15.30;97.60;;;15.61;84.84;99978.09;5013857;28;20510;-72
2021/09/09 04:50:12;;;;;;;19.40;13.40;;;15.30;97.50;;;15.62;84.91;99979.78;4989681;28;20548;-72
2021/09/09 04:52:41;;;;;;;22.38;13.23;;;15.30;97.50;;;15.62;84.90;99988.84;4994401;28;20048;-71
2021/09/09 04:55:09;;;;;;;17.85;12.23;;;15.30;97.50;;;15.59;84.65;99980.22;5044879;28;20432;-72
2021/09/09 04:57:36;;;;;;;20.35;12.75;;;15.30;97.50;;;15.53;85.04;99979.25;5029730;28;20069;-72
2021/09/09 05:00:05;;;;;;;21.88;12.55;;;15.30;97.50;;;15.56;85.04;99975.22;5029943;28;20049;-72
2021/09/09 05:02:33;;;;;;;17.42;12.30;;;15.30;97.50;;;15.60;84.96;99981.94;5025631;28;20049;-71
2021/09/09 05:05:00;;;;;;;17.90;12.60;;;15.30;97.50;;;15.58;85.09;99986.81;5011687;28;20092;-72
2021/09/09 05:07:27;;;;;;;16.73;12.35;;;15.30;97.50;;;15.54;85.22;99986.44;4990537;28;20054;-72
2021/09/09 05:09:56;;;;;;;21.20;13.40;;;15.40;97.50;;;15.55;85.36;99985.34;5010116;28;20060;-72
2021/09/09 05:12:24;;;;;;;19.05;13.07;;;15.30;97.70;;;15.56;85.33;99986.19;5009387;28;20129;-72
2021/09/09 05:14:51;;;;;;;16.88;12.45;;;15.30;97.60;;;15.57;85.28;99988.72;5009495;28;20133;-72
2021/09/09 05:17:18;;;;;;;20.00;12.63;;;15.40;97.50;;;15.58;84.97;99984.06;5009359;28;20073;-72
2021/09/09 05:19:45;;;;;;;28.35;13.45;;;15.40;97.50;;;15.55;85.41;99985.34;5008700;28;20046;-72
2021/09/09 05:22:13;;;;;;;18.67;12.75;;;15.40;97.50;;;15.58;85.47;99990.38;5009122;28;20116;-72
2021/09/09 05:24:40;;;;;;;18.05;12.68;;;15.40;97.50;;;15.59;85.67;99985.72;5009936;28;20056;-72
2021/09/09 05:27:09;;;;;;;18.35;12.52;;;15.40;97.50;;;15.60;85.65;99981.94;5010102;28;20556;-72
2021/09/09 05:29:36;;;;;;;20.55;12.20;;;15.50;97.60;;;15.61;85.86;99984.44;5009641;28;20395;-71
2021/09/09 05:32:04;;;;;;;19.90;12.70;;;15.50;97.50;;;15.61;85.80;99973.47;5009616;28;20042;-72
2021/09/09 05:34:31;;;;;;;18.17;12.85;;;15.50;97.50;;;15.64;85.93;99972.16;5028174;28;20137;-72
2021/09/09 05:36:59;;;;;;;17.80;11.93;;;15.60;97.60;;;15.66;85.87;99980.16;5030292;28;20053;-72
2021/09/09 05:39:26;;;;;;;17.52;13.00;;;15.60;97.40;;;15.67;85.97;99977.19;5030317;28;20091;-72
2021/09/09 05:41:53;;;;;;;19.85;13.10;;;15.60;97.20;;;15.69;86.06;99979.69;5029499;28;20044;-72
2021/09/09 05:44:22;;;;;;;18.77;12.40;;;15.70;97.20;;;15.70;86.05;99975.88;5025256;28;20602;-72
2021/09/09 05:46:50;;;;;;;19.77;12.60;;;15.70;97.20;;;15.68;86.44;99970.63;5029887;28;20049;-72
2021/09/09 05:49:17;;;;;;;18.80;13.07;;;15.80;97.20;;;15.71;86.53;99966.59;5030008;28;20087;-72
2021/09/09 05:51:44;;;;;;;20.20;12.48;;;15.80;97.20;;;15.73;86.76;99964.47;5029530;28;20050;-72
2021/09/09 05:54:12;;;;;;;17.65;12.65;;;15.90;97.50;;;15.76;86.98;99969.50;5026592;28;20429;-72
2021/09/09 05:56:39;;;;;;;18.88;12.60;;;15.90;97.60;;;15.78;87.06;99973.69;5029487;28;20748;-72
2021/09/09 05:59:06;;;;;;;21.17;13.18;;;15.90;97.60;;;15.75;87.62;99965.09;5029534;28;20138;-72
2021/09/09 06:01:36;;;;;;;18.25;13.25;;;16.00;97.80;;;15.78;87.81;99959.97;5029276;28;20046;-72
2021/09/09 06:04:04;;;;;;;22.17;13.68;;;16.00;97.70;;;15.78;87.96;99950.88;5028355;28;20042;-72
2021/09/09 06:06:31;;;;;;;21.77;13.23;;;16.10;97.40;;;15.84;87.79;99955.47;5044724;28;20150;-72
2021/09/09 06:08:59;;;;;;;18.88;12.90;;;16.20;97.00;;;15.89;88.11;99958.31;5029274;28;20075;-72
2021/09/09 06:11:26;;;;;;;17.55;12.60;;;16.30;97.10;;;15.92;88.25;99957.03;5027709;28;20065;-72
2021/09/09 06:13:53;;;;;;;17.38;12.00;;;16.30;97.00;;;15.92;88.80;99963.38;5027008;28;20047;-72
2021/09/09 06:16:20;;;;;;;19.98;12.48;;;16.40;97.00;;;15.93;89.20;99964.19;5044457;28;20520;-72
2021/09/09 06:18:49;;;;;;;21.58;13.85;;;16.50;96.70;;;15.94;89.51;99961.22;5029380;28;20163;-72
2021/09/09 06:21:16;;;;;;;18.23;13.75;;;16.70;96.70;;;15.97;89.51;99959.91;5016705;28;20125;-72
2021/09/09 06:23:44;;;;;;;20.90;13.25;;;16.80;95.90;;;16.03;89.57;99965.31;5008046;28;20502;-72
2021/09/09 06:26:11;;;;;;;24.42;15.13;;;16.90;95.70;;;16.05;90.19;99961.47;5008931;28;20128;-72
2021/09/09 06:28:38;;;;;;;22.77;14.60;;;17.00;95.90;;;16.11;90.51;99960.56;5009248;28;20124;-72
2021/09/09 06:31:06;;;;;;;19.58;13.98;;;17.10;96.20;;;16.13;91.21;99969.41;5009263;28;20050;-72
2021/09/09 06:33:33;;;;;;;18.95;12.65;;;17.10;96.00;;;16.17;91.77;99959.63;5008305;28;20080;-72
2021/09/09 06:36:02;;;;;;;24.45;14.68;;;17.20;96.60;;;16.23;91.17;99967.72;5009093;28;20054;-72
2021/09/09 06:38:29;;;;;;;24.70;14.50;;;17.30;96.00;;;16.30;91.10;99962.16;5009141;28;20406;-72
2021/09/09 06:40:56;;;;;;;21.05;14.02;;;17.40;95.30;;;16.35;91.30;99956.75;5008939;28;20046;-72
2021/09/09 06:43:24;;;;;;;19.30;14.40;;;17.60;95.20;;;16.40;91.44;99965.13;5017360;28;20509;-72
2021/09/09 06:45:51;;;;;;;19.13;13.25;;;17.70;94.70;;;16.47;91.87;99953.19;5028792;28;20052;-72
2021/09/09 06:48:18;;;;;;;24.17;14.00;;;17.80;94.70;;;16.55;91.35;99955.63;5028868;28;20049;-72
2021/09/09 06:50:46;;;;;;;21.45;13.82;;;18.00;94.30;;;16.66;91.27;99953.94;5028306;28;20148;-72
2021/09/09 06:53:14;;;;;;;21.42;13.25;;;18.00;93.70;;;16.71;90.59;99954.06;5021431;28;20107;-72
2021/09/09 06:55:42;;;;;;;23.27;14.18;;;18.20;92.90;;;16.76;90.14;99952.25;5009079;28;20084;-72
2021/09/09 06:58:09;;;;;;;27.80;14.48;;;18.30;92.20;;;16.82;90.41;99953.25;5008947;28;20514;-72
2021/09/09 07:00:36;;;;;;;20.63;12.88;;;18.40;92.40;;;16.90;90.12;99958.38;5008706;28;20046;-72
2021/09/09 07:03:03;;;;;;;22.50;13.23;;;18.50;91.60;;;16.96;89.85;99957.44;5009215;28;20096;-72
2021/09/09 07:05:31;;;;;;;19.80;13.65;;;18.60;91.20;;;17.03;88.98;99954.53;5008591;28;20141;-72
2021/09/09 07:07:58;;;;;;;31.08;14.45;;;18.70;90.30;;;17.09;89.88;99956.31;5008417;28;20564;-72
2021/09/09 07:10:27;;;;;;;19.35;11.88;;;18.80;90.70;;;17.15;89.16;99960.88;5008708;28;20053;-72
2021/09/09 07:12:54;;;;;;;22.88;12.98;;;19.00;89.90;;;17.23;88.93;99961.56;5013530;28;20073;-70
2021/09/09 07:15:22;;;;;;;25.67;12.43;;;19.10;89.60;;;17.31;88.87;99963.97;5028064;28;20045;-71
2021/09/09 07:17:49;;;;;;;23.20;12.90;;;19.20;89.30;;;17.35;89.78;99963.22;5028208;28;20095;-70
2021/09/09 07:20:16;;;;;;;20.38;11.95;;;19.30;89.80;;;17.41;90.32;99958.66;5028500;28;20072;-70
2021/09/09 07:22:44;;;;;;;21.45;11.77;;;19.30;90.10;;;17.46;90.83;99961.53;5022833;28;20474;-71
2021/09/09 07:25:11;;;;;;;18.77;12.30;;;19.50;90.30;;;17.54;91.53;99958.38;5008628;28;20104;-71
2021/09/09 07:27:40;;;;;;;26.33;12.07;;;19.60;90.60;;;17.66;91.44;99957.50;5008754;28;20049;-70
2021/09/09 07:30:09;;;;;;;19.95;12.10;;;19.70;90.10;;;17.74;92.46;99968.97;5008568;28;20069;-71
2021/09/09 07:32:36;;;;;;;17.83;11.63;;;19.80;90.70;;;17.85;92.21;99961.75;5009817;28;20397;-71
2021/09/09 07:35:04;;;;;;;18.20;10.93;;;20.00;90.20;;;17.98;91.34;99958.69;5028031;28;20111;-71
2021/09/09 07:37:32;;;;;;;18.33;11.38;;;20.10;89.40;;;18.08;91.29;99951.72;5028303;28;20049;-71
2021/09/09 07:39:59;;;;;;;17.83;11.15;;;20.20;89.20;;;18.19;91.50;99952.72;5027840;28;20056;-70
2021/09/09 07:42:26;;;;;;;15.73;10.88;;;20.40;89.10;;;18.31;92.22;99954.31;5025040;28;20077;-71
2021/09/09 07:44:55;;;;;;;15.60;9.93;;;20.50;89.50;;;18.44;92.28;99955.06;5004862;28;20524;-71
2021/09/09 07:47:22;;;;;;;13.00;8.75;;;20.60;89.30;;;18.57;89.99;99957.50;4987307;28;20090;-70
2021/09/09 07:49:50;;;;;;;14.88;8.75;;;20.70;88.00;;;18.67;88.70;99949.38;4997763;28;20042;-71
2021/09/09 07:52:17;;;;;;;13.13;9.05;;;20.80;87.10;;;18.92;87.90;99954.50;4995535;28;20065;-71
2021/09/09 07:54:44;;;;;;;13.38;8.90;;;21.00;86.50;;;19.05;87.36;99955.19;5006504;28;20498;-71
2021/09/09 07:57:12;;;;;;;14.45;8.90;;;21.10;85.80;;;19.09;85.65;99951.66;5002859;28;20049;-71
2021/09/09 07:59:39;;;;;;;14.25;9.48;;;21.20;85.00;;;19.10;88.02;99960.81;5010617;28;20044;-71
2021/09/09 08:02:08;;;;;;;13.57;7.80;;;21.30;86.30;;;19.20;85.98;99962.84;5006415;28;20042;-71
2021/09/09 08:04:36;;;;;;;15.18;8.27;;;21.40;84.50;;;19.32;86.04;99960.78;5006093;28;20042;-71
2021/09/09 08:07:03;;;;;;;12.68;8.30;;;21.50;84.70;;;19.39;87.23;99955.94;4999311;28;20056;-71
2021/09/09 08:09:31;;;;;;;11.68;8.45;;;21.60;85.50;;;19.45;87.19;99962.34;5001743;28;20194;-71
2021/09/09 08:11:58;;;;;;;15.38;8.93;;;21.70;85.50;;;19.57;86.94;99962.22;5005643;28;20042;-71
2021/09/09 08:14:25;;;;;;;12.52;8.27;;;21.70;85.30;;;19.63;85.70;99961.16;5007337;28;20035;-71
2021/09/09 08:16:53;;;;;;;12.77;8.40;;;21.80;84.40;;;19.81;84.65;99968.31;4998242;28;20116;-71
2021/09/09 08:19:21;;;;;;;14.20;8.30;;;21.90;83.70;;;19.86;84.02;99977.50;4992610;28;20085;-71
2021/09/09 08:21:49;;;;;;;12.90;8.20;;;22.00;83.30;;;19.93;84.17;99971.75;4990664;28;20050;-71
2021/09/09 08:24:17;;;;;;;13.45;8.50;;;22.00;83.20;;;19.94;84.78;99969.84;5007686;28;20034;-71
2021/09/09 08:26:45;;;;;;;15.68;8.30;;;22.10;83.70;;;19.99;86.26;99975.41;5005994;28;20046;-71
2021/09/09 08:29:12;;;;;;;11.98;8.10;;;22.20;84.20;;;20.13;83.93;99976.66;5008756;28;20137;-71
2021/09/09 08:31:39;;;;;;;15.70;8.23;;;22.20;82.80;;;20.26;78.73;99969.88;4998111;28;20049;-71
2021/09/09 08:34:07;;;;;;;16.60;9.00;;;22.30;79.50;;;20.35;81.71;99981.28;5001710;28;20481;-71
2021/09/09 08:36:35;;;;;;;15.82;7.68;;;22.30;81.60;;;20.44;78.95;99982.47;5001162;28;20105;-72
2021/09/09 08:39:03;;;;;;;14.70;8.10;;;22.40;80.00;;;20.55;79.58;99973.16;5002589;28;20125;-72
2021/09/09 08:41:31;;;;;;;16.05;8.57;;;22.50;80.20;;;20.68;78.78;99974.69;4991156;28;20096;-72
2021/09/09 08:43:59;;;;;;;11.20;7.72;;;22.60;79.70;;;20.72;78.52;99972.22;5002982;28;20038;-72
2021/09/09 08:46:26;;;;;;;12.70;7.38;;;22.60;79.80;;;20.73;77.16;99973.88;5001952;28;20042;-72
2021/09/09 08:48:55;;;;;;;11.77;6.97;;;22.70;78.70;;;20.75;79.45;99980.81;5003390;28;20117;-72
2021/09/09 08:51:23;;;;;;;11.30;7.45;;;22.70;79.80;;;20.81;77.44;99982.53;4995714;28;20050;-72
2021/09/09 08:53:52;;;;;;;14.75;8.13;;;22.80;79.00;;;20.92;78.02;99983.41;5017328;28;20121;-72
2021/09/09 08:56:19;;;;;;;12.40;7.47;;;22.80;79.50;;;20.99;77.29;99989.56;5013880;28;20062;-73
2021/09/09 08:58:46;;;;;;;15.45;7.85;;;22.90;78.60;;;21.06;76.86;99983.81;4991212;28;20058;-71
2021/09/09 09:01:17;;;;;;;13.27;7.80;;;22.90;78.70;;;21.19;75.91;99985.25;5009010;28;20059;-72
2021/09/09 09:03:53;;;;;;;22.35;7.95;;;23.00;77.90;;;21.13;75.40;99976.06;5010705;28;20092;-72
2021/09/09 09:06:39;;;;;;;13.75;7.63;;;23.10;77.30;;;21.17;76.18;99990.22;4990347;28;20042;-72
2021/09/09 09:09:10;;;;;;;15.40;7.60;;;23.10;77.90;;;21.28;75.02;99983.63;5003707;28;20213;-72
2021/09/09 09:11:44;;;;;;;16.35;7.13;;;23.20;76.80;;;21.34;74.35;99979.78;4997306;28;20141;-72
2021/09/09 09:14:15;;;;;;;13.52;7.88;;;23.20;75.70;;;21.45;73.97;99976.00;4992014;28;20046;-72
2021/09/09 09:16:48;;;;;;;12.63;7.70;;;23.30;76.40;;;21.43;74.81;99972.63;4989096;28;20700;-71
2021/09/09 09:19:19;;;;;;;14.02;7.57;;;23.30;77.20;;;21.44;74.46;99973.50;4999653;28;20050;-72
2021/09/09 09:21:48;;;;;;;;;;;23.30;76.10;;;21.43;73.75;99971.81;4992944;28;20074;-72
2021/09/09 09:24:19;;;;;;;14.30;7.85;;;23.30;75.70;;;21.41;73.89;99969.31;4994997;28;19937;-71
2021/09/09 09:27:09;;;;;;;11.65;7.47;;;23.40;76.00;;;21.58;76.30;99979.38;4999346;28;20045;-72
2021/09/09 09:29:38;;;;;;;14.80;8.65;;;23.50;77.50;;;21.65;76.00;99985.50;5009205;28;20701;-72
2021/09/09 09:32:15;;;;;;;15.93;7.85;;;23.50;77.40;;;21.60;75.49;99988.25;5011788;28;20505;-72
2021/09/09 09:34:44;;;;;;;11.35;7.47;;;23.50;77.20;;;21.62;74.60;99983.28;4995875;28;20070;-72
2021/09/09 09:37:19;;;;;;;14.73;8.55;;;23.50;76.20;;;21.59;76.42;99986.56;4992824;28;20121;-72
2021/09/09 09:39:48;;;;;;;11.30;7.63;;;23.60;78.00;;;21.65;75.85;99991.88;4996963;28;20050;-72
2021/09/09 09:42:15;;;;;;;14.15;7.85;;;23.60;77.00;;;21.71;74.08;100000.22;4993231;28;20061;-72
2021/09/09 09:44:47;;;;;;;16.23;8.07;;;23.60;76.10;;;21.75;73.73;99985.53;5001988;28;20068;-72
2021/09/09 09:47:18;;;;;;;15.02;7.80;;;23.70;75.70;;;21.71;74.34;99978.88;4995441;28;20595;-72
2021/09/09 09:49:47;;;;;;;12.73;7.32;;;23.70;76.20;;;21.67;72.40;99975.00;4994119;28;20682;-72
2021/09/09 09:52:23;;;;;;;18.88;7.50;;;23.70;74.50;;;21.73;74.09;99970.31;4995933;28;20509;-70
2021/09/09 09:54:53;;;;;;;11.90;7.35;;;23.70;75.90;;;21.69;75.85;99969.19;4992907;28;20070;-70
2021/09/09 09:57:22;;;;;;;15.02;7.25;;;23.70;76.70;;;21.78;74.26;99967.53;4993845;28;20050;-70
2021/09/09 09:59:49;;;;;;;12.90;7.20;;;23.70;75.50;;;21.75;73.40;99960.59;4993255;28;20054;-70
2021/09/09 10:02:17;;;;;;;14.35;7.75;;;23.70;75.10;;;21.77;74.71;99952.03;4989037;28;20042;-69
2021/09/09 10:04:46;;;;;;;11.95;7.43;;;23.70;76.30;;;21.82;73.46;99966.72;4992876;28;20046;-70
2021/09/09 10:07:15;;;;;;;15.70;8.10;;;23.70;75.30;;;21.73;74.28;99968.34;4992335;28;20042;-70
2021/09/09 10:09:46;;;;;;;12.90;7.47;;;23.70;75.70;;;21.80;74.67;99971.72;4994707;28;20144;-70